Time;durP1;ratioP1;P1;durP2;ratioP2;P2;SDS_P1;SDS_P2;PMS_P1;PMS_P2;Temp;Humidity;BMP_temperature;BMP_pressure;BME280_temperature;BME280_humidity;BME280_pressure;Samples;Min_cycle;Max_cycle;Signal;HPM_P1;HPM_P2
2022/10/06 00:00:26;;;;;;;12.02;5.70;;;;;;;;;;4990470;28;20491;-54
2022/10/06 00:02:52;;;;;;;18.10;6.10;;;;;;;;;;4994960;28;20060;-51
2022/10/06 00:05:22;;;;;;;8.90;5.63;;;;;;;;;;5006323;28;20494;-52
2022/10/06 00:07:55;;;;;;;9.60;5.22;;;;;;;;;;4983799;28;20064;-50
2022/10/06 00:10:23;;;;;;;9.05;4.43;;;;;;;;;;4980144;28;20065;-51
2022/10/06 00:12:53;;;;;;;9.25;5.20;;;;;;;;;;4993649;28;20537;-52
2022/10/06 00:15:25;;;;;;;11.88;5.18;;;;;;;;;;4993282;28;20082;-51
2022/10/06 00:17:54;;;;;;;11.48;5.88;;;;;;;;;;4992747;28;20054;-52
2022/10/06 00:20:22;;;;;;;9.05;5.22;;;;;;;;;;4993959;28;20467;-54
2022/10/06 00:22:51;;;;;;;9.82;5.30;;;;;;;;;;4987687;28;20054;-53
2022/10/06 00:25:22;;;;;;;13.93;5.70;;;;;;;;;;4993896;28;20050;-50
2022/10/06 00:27:58;;;;;;;10.15;6.25;;;;;;;;;;4991152;28;20054;-53
2022/10/06 00:30:26;;;;;;;10.18;5.45;;;;;;;;;;4984768;28;20436;-53
2022/10/06 00:32:55;;;;;;;8.95;5.55;;;;;;;;;;4990652;28;20058;-50
2022/10/06 00:35:23;;;;;;;9.07;5.07;;;;;;;;;;4993762;28;20329;-54
2022/10/06 00:37:52;;;;;;;8.07;4.40;;;;;;;;;;4992181;28;20382;-50
2022/10/06 00:40:33;;;;;;;8.98;5.25;;;;;;;;;;4992861;28;20050;-52
2022/10/06 00:43:03;;;;;;;9.60;5.75;;;;;;;;;;4992621;28;20076;-51
2022/10/06 00:45:40;;;;;;;9.05;5.38;;;;;;;;;;4993906;28;20053;-52
2022/10/06 00:48:19;;;;;;;10.68;5.60;;;;;;;;;;4994130;28;20062;-52
2022/10/06 00:50:47;;;;;;;8.50;4.97;;;;;;;;;;4994130;28;20054;-47
2022/10/06 00:53:18;;;;;;;7.75;4.90;;;;;;;;;;4993001;28;20471;-49
2022/10/06 00:56:00;;;;;;;8.65;5.13;;;;;;;;;;5006902;28;20066;-46
2022/10/06 00:58:30;;;;;;;9.85;5.13;;;;;;;;;;4990626;28;20300;-48
2022/10/06 01:01:06;;;;;;;11.25;4.97;;;;;;;;;;4992756;28;20058;-47
2022/10/06 01:03:44;;;;;;;8.48;4.70;;;;;;;;;;4992495;28;20053;-47
2022/10/06 01:06:13;;;;;;;9.90;4.55;;;;;;;;;;4986607;28;20520;-47
2022/10/06 01:08:42;;;;;;;12.80;5.15;;;;;;;;;;4993676;28;20141;-47
2022/10/06 01:11:17;;;;;;;10.52;4.40;;;;;;;;;;4979196;28;20486;-47
2022/10/06 01:13:54;;;;;;;7.53;4.55;;;;;;;;;;4993562;28;20058;-46
2022/10/06 01:16:31;;;;;;;10.63;5.20;;;;;;;;;;4992899;28;20050;-48
2022/10/06 01:18:58;;;;;;;9.18;4.85;;;;;;;;;;4992523;28;20059;-48
2022/10/06 01:21:32;;;;;;;11.23;5.30;;;;;;;;;;4993455;28;20046;-47
2022/10/06 01:24:03;;;;;;;10.55;6.05;;;;;;;;;;4993110;28;20054;-47
2022/10/06 01:26:33;;;;;;;11.52;5.38;;;;;;;;;;4973682;28;20081;-47
2022/10/06 01:29:01;;;;;;;9.48;5.35;;;;;;;;;;4985998;28;20569;-53
2022/10/06 01:31:31;;;;;;;10.70;6.07;;;;;;;;;;4988028;28;20058;-52
2022/10/06 01:34:00;;;;;;;10.20;4.97;;;;;;;;;;4982877;28;20432;-53
2022/10/06 01:36:28;;;;;;;12.35;5.68;;;;;;;;;;4988439;28;20050;-50
2022/10/06 01:38:59;;;;;;;11.07;5.60;;;;;;;;;;4975031;28;20381;-52
2022/10/06 01:41:29;;;;;;;7.60;4.70;;;;;;;;;;4975264;28;20054;-50
2022/10/06 01:43:59;;;;;;;9.30;5.30;;;;;;;;;;4974642;28;20094;-54
2022/10/06 01:46:36;;;;;;;7.68;4.70;;;;;;;;;;4985554;28;20050;-53
2022/10/06 01:49:02;;;;;;;8.98;5.57;;;;;;;;;;4983081;28;20443;-53
2022/10/06 01:51:30;;;;;;;12.02;5.35;;;;;;;;;;4992835;28;20050;-51
2022/10/06 01:53:57;;;;;;;8.48;5.32;;;;;;;;;;4993183;28;20050;-51
2022/10/06 01:56:27;;;;;;;9.30;5.20;;;;;;;;;;5003945;28;20064;-50
2022/10/06 01:58:59;;;;;;;9.45;5.97;;;;;;;;;;4979582;28;20050;-51
2022/10/06 02:01:29;;;;;;;15.98;6.80;;;;;;;;;;4996406;28;20054;-51
2022/10/06 02:03:58;;;;;;;11.23;5.28;;;;;;;;;;4993023;28;20051;-50
2022/10/06 02:06:26;;;;;;;9.85;5.85;;;;;;;;;;4996338;28;20134;-52
2022/10/06 02:08:55;;;;;;;8.55;4.95;;;;;;;;;;4996174;28;20054;-51
2022/10/06 02:11:23;;;;;;;7.00;4.50;;;;;;;;;;4996931;28;20042;-52
2022/10/06 02:13:53;;;;;;;8.88;5.38;;;;;;;;;;4995523;28;20499;-53
2022/10/06 02:16:26;;;;;;;9.90;5.25;;;;;;;;;;4996293;28;20100;-53
2022/10/06 02:18:55;;;;;;;8.63;4.97;;;;;;;;;;4997931;28;20064;-50
2022/10/06 02:21:25;;;;;;;9.63;5.00;;;;;;;;;;4998145;28;20471;-51
2022/10/06 02:23:52;;;;;;;8.70;5.57;;;;;;;;;;4996465;28;20057;-49
2022/10/06 02:26:22;;;;;;;7.80;4.88;;;;;;;;;;5003249;28;20062;-51
2022/10/06 02:28:52;;;;;;;9.23;4.93;;;;;;;;;;5001853;28;20050;-52
2022/10/06 02:31:22;;;;;;;10.25;4.80;;;;;;;;;;4994229;28;20058;-53
2022/10/06 02:33:54;;;;;;;5.88;4.00;;;;;;;;;;4993739;28;20054;-50
2022/10/06 02:36:22;;;;;;;9.57;4.57;;;;;;;;;;4983404;28;20061;-50
2022/10/06 02:38:53;;;;;;;8.82;5.10;;;;;;;;;;4993660;28;20141;-50
2022/10/06 02:41:24;;;;;;;13.40;5.60;;;;;;;;;;4993372;28;20137;-49
2022/10/06 02:43:52;;;;;;;8.63;4.22;;;;;;;;;;4993839;28;20050;-51
2022/10/06 02:46:21;;;;;;;10.52;4.70;;;;;;;;;;4993921;28;20058;-53
2022/10/06 02:48:50;;;;;;;11.95;5.68;;;;;;;;;;4989140;28;20090;-51
2022/10/06 02:51:21;;;;;;;7.70;4.60;;;;;;;;;;4993894;28;20070;-53
2022/10/06 02:53:57;;;;;;;10.75;5.18;;;;;;;;;;4984224;28;20066;-50
2022/10/06 02:56:27;;;;;;;8.98;4.35;;;;;;;;;;4987589;28;20112;-49
2022/10/06 02:59:04;;;;;;;7.63;4.22;;;;;;;;;;4986165;28;20082;-52
2022/10/06 03:01:33;;;;;;;7.78;4.68;;;;;;;;;;4995650;28;20078;-53
2022/10/06 03:04:03;;;;;;;8.32;4.50;;;;;;;;;;4985627;28;20050;-49
2022/10/06 03:06:44;;;;;;;9.50;4.20;;;;;;;;;;4996037;28;20047;-52
2022/10/06 03:09:12;;;;;;;8.88;4.85;;;;;;;;;;4976171;28;20463;-53
2022/10/06 03:11:41;;;;;;;7.13;4.18;;;;;;;;;;4977981;28;20055;-50
2022/10/06 03:14:11;;;;;;;8.98;5.20;;;;;;;;;;4989619;28;20093;-50
2022/10/06 03:16:42;;;;;;;9.77;4.97;;;;;;;;;;4996847;28;20051;-51
2022/10/06 03:19:13;;;;;;;7.55;4.55;;;;;;;;;;4981585;28;20089;-53
2022/10/06 03:21:46;;;;;;;8.23;4.80;;;;;;;;;;4985578;28;20345;-49
2022/10/06 03:24:16;;;;;;;8.25;5.03;;;;;;;;;;4995194;28;20140;-51
2022/10/06 03:26:47;;;;;;;7.55;4.70;;;;;;;;;;4995209;28;20125;-49
2022/10/06 03:29:15;;;;;;;6.68;4.47;;;;;;;;;;4994683;28;20475;-53
2022/10/06 03:31:44;;;;;;;8.60;4.25;;;;;;;;;;4995506;28;20085;-51
2022/10/06 03:34:12;;;;;;;9.63;4.60;;;;;;;;;;4994765;28;20065;-50
2022/10/06 03:36:41;;;;;;;6.30;3.55;;;;;;;;;;4994535;28;20451;-50
2022/10/06 03:39:11;;;;;;;10.02;4.78;;;;;;;;;;4995116;28;20074;-50
2022/10/06 03:41:40;;;;;;;9.95;4.85;;;;;;;;;;4995213;28;20108;-50
2022/10/06 03:44:09;;;;;;;7.70;4.85;;;;;;;;;;4995296;28;20069;-52
2022/10/06 03:46:39;;;;;;;7.30;4.15;;;;;;;;;;4994556;28;20062;-51
2022/10/06 03:49:08;;;;;;;8.48;4.65;;;;;;;;;;4995158;28;20125;-50
2022/10/06 03:51:44;;;;;;;10.15;4.60;;;;;;;;;;4994974;28;20102;-51
2022/10/06 03:54:22;;;;;;;5.75;3.25;;;;;;;;;;4991997;28;20182;-51
2022/10/06 03:56:52;;;;;;;6.32;3.83;;;;;;;;;;5007903;28;20050;-52
2022/10/06 03:59:18;;;;;;;6.53;3.42;;;;;;;;;;4995213;28;20085;-51
2022/10/06 04:01:57;;;;;;;7.60;4.03;;;;;;;;;;5005094;28;20173;-50
2022/10/06 04:04:26;;;;;;;7.80;4.32;;;;;;;;;;4993743;28;20054;-50
2022/10/06 04:06:56;;;;;;;6.55;3.78;;;;;;;;;;4994514;28;20050;-49
2022/10/06 04:09:28;;;;;;;9.73;4.88;;;;;;;;;;4984771;28;20066;-53
2022/10/06 04:11:58;;;;;;;9.43;4.82;;;;;;;;;;4982182;28;20508;-51
2022/10/06 04:14:26;;;;;;;8.05;4.35;;;;;;;;;;4980850;28;20050;-51
2022/10/06 04:16:56;;;;;;;6.68;4.00;;;;;;;;;;4992694;28;20073;-53
2022/10/06 04:19:26;;;;;;;7.10;4.43;;;;;;;;;;4992830;28;20125;-50
2022/10/06 04:21:53;;;;;;;6.35;3.78;;;;;;;;;;4993372;28;20050;-53
2022/10/06 04:24:22;;;;;;;6.85;3.70;;;;;;;;;;4992141;28;20058;-52
2022/10/06 04:26:52;;;;;;;6.07;3.83;;;;;;;;;;4993497;28;20050;-50
2022/10/06 04:29:19;;;;;;;6.82;3.75;;;;;;;;;;4993226;28;20046;-50
2022/10/06 04:31:50;;;;;;;9.07;4.22;;;;;;;;;;4993451;28;20050;-50
2022/10/06 04:34:20;;;;;;;5.43;3.30;;;;;;;;;;4992507;28;20042;-51
2022/10/06 04:36:46;;;;;;;5.45;3.58;;;;;;;;;;4991098;28;20061;-52
2022/10/06 04:39:16;;;;;;;5.50;3.80;;;;;;;;;;4992196;28;20056;-53
2022/10/06 04:41:46;;;;;;;5.90;3.55;;;;;;;;;;4992728;28;20054;-50
2022/10/06 04:44:25;;;;;;;6.55;4.18;;;;;;;;;;4992112;28;20475;-52
2022/10/06 04:46:55;;;;;;;8.82;3.42;;;;;;;;;;4982120;28;20060;-51
2022/10/06 04:49:26;;;;;;;6.15;3.20;;;;;;;;;;4991663;28;20367;-53
2022/10/06 04:51:56;;;;;;;7.15;3.67;;;;;;;;;;4992653;28;20058;-50
2022/10/06 04:54:25;;;;;;;5.90;3.80;;;;;;;;;;4992373;28;20646;-51
2022/10/06 04:56:53;;;;;;;8.15;3.80;;;;;;;;;;4992609;28;20053;-51
2022/10/06 05:00:21;;;;;;;8.18;3.90;;;;;;;;;;4992949;28;20566;-50
2022/10/06 05:02:13;;;;;;;7.35;3.50;;;;;;;;;;4992486;28;20081;-50
2022/10/06 05:04:44;;;;;;;6.35;3.10;;;;;;;;;;4993224;28;20069;-52
2022/10/06 05:07:11;;;;;;;5.68;4.00;;;;;;;;;;4994672;28;20045;-53
2022/10/06 05:09:38;;;;;;;7.45;3.83;;;;;;;;;;4995333;28;20465;-49
2022/10/06 05:12:07;;;;;;;7.75;3.60;;;;;;;;;;4986577;28;20050;-49
2022/10/06 05:14:47;;;;;;;7.03;3.78;;;;;;;;;;4982065;28;20050;-50
2022/10/06 05:17:18;;;;;;;5.68;3.45;;;;;;;;;;4993134;28;20046;-50
2022/10/06 05:19:48;;;;;;;10.18;3.92;;;;;;;;;;4992820;28;20058;-50
2022/10/06 05:22:18;;;;;;;7.30;3.67;;;;;;;;;;4993153;28;20100;-49
2022/10/06 05:24:52;;;;;;;8.45;3.28;;;;;;;;;;4993089;28;20082;-50
2022/10/06 05:27:22;;;;;;;4.97;3.15;;;;;;;;;;4992866;28;20137;-53
2022/10/06 05:30:08;;;;;;;5.32;3.10;;;;;;;;;;4993133;28;20050;-53
2022/10/06 05:32:39;;;;;;;;;;;;;;;;;;4993756;28;20054;-50
2022/10/06 05:35:15;;;;;;;4.78;2.92;;;;;;;;;;4992882;28;19922;-51
2022/10/06 05:37:42;;;;;;;8.68;2.95;;;;;;;;;;4992518;28;20061;-51
2022/10/06 05:40:12;;;;;;;4.82;3.17;;;;;;;;;;4996307;28;20061;-50
2022/10/06 05:42:42;;;;;;;8.27;5.32;;;;;;;;;;4998881;28;20065;-50
2022/10/06 05:45:25;;;;;;;5.22;3.42;;;;;;;;;;4999811;28;20050;-49
2022/10/06 05:47:54;;;;;;;5.50;3.33;;;;;;;;;;4999470;28;20057;-50
2022/10/06 05:53:03;;;;;;;3.75;2.63;;;;;;;;;;4999340;28;20064;-52
2022/10/06 05:55:33;;;;;;;6.95;3.65;;;;;;;;;;4986136;28;20055;-52
2022/10/06 05:58:01;;;;;;;7.05;4.35;;;;;;;;;;4999827;28;20133;-52
2022/10/06 06:00:42;;;;;;;8.00;3.55;;;;;;;;;;4994463;28;20055;-52
2022/10/06 06:03:15;;;;;;;6.63;3.03;;;;;;;;;;4982364;28;20055;-49
2022/10/06 06:05:41;;;;;;;4.75;2.75;;;;;;;;;;4983695;28;20368;-53
2022/10/06 06:08:09;;;;;;;4.30;2.58;;;;;;;;;;4985465;28;20062;-52
2022/10/06 06:10:37;;;;;;;7.43;3.25;;;;;;;;;;4994549;28;20052;-54
2022/10/06 06:13:04;;;;;;;8.20;3.40;;;;;;;;;;4986275;28;20383;-48
2022/10/06 06:18:22;;;;;;;4.88;2.72;;;;;;;;;;4989913;28;20112;-49
2022/10/06 06:20:54;;;;;;;7.50;2.47;;;;;;;;;;4997583;28;20368;-48
2022/10/06 06:23:24;;;;;;;26.33;5.78;;;;;;;;;;4990884;28;20089;-48
2022/10/06 06:26:01;;;;;;;8.30;3.30;;;;;;;;;;4997909;28;20058;-48
2022/10/06 06:28:29;;;;;;;5.25;2.72;;;;;;;;;;5000330;28;20422;-48
2022/10/06 06:31:07;;;;;;;4.07;2.33;;;;;;;;;;4992193;28;20051;-49
2022/10/06 06:33:36;;;;;;;5.72;2.22;;;;;;;;;;4991669;28;20057;-47
2022/10/06 06:36:06;;;;;;;2.97;2.00;;;;;;;;;;4993860;28;20042;-49
2022/10/06 06:38:34;;;;;;;8.05;2.30;;;;;;;;;;4987334;28;20112;-49
2022/10/06 06:41:04;;;;;;;6.38;3.17;;;;;;;;;;4988777;28;20057;-47
2022/10/06 06:43:31;;;;;;;4.95;2.13;;;;;;;;;;4990529;28;20046;-49
2022/10/06 06:46:11;;;;;;;9.27;2.78;;;;;;;;;;4997964;28;20054;-50
2022/10/06 06:48:40;;;;;;;4.45;2.15;;;;;;;;;;4996460;28;20077;-50
2022/10/06 06:51:10;;;;;;;6.28;2.47;;;;;;;;;;4996817;28;20055;-47
2022/10/06 06:53:39;;;;;;;4.13;2.13;;;;;;;;;;4995304;28;20077;-47
2022/10/06 06:56:15;;;;;;;4.53;2.08;;;;;;;;;;4995547;28;20089;-48
2022/10/06 06:58:46;;;;;;;4.15;2.40;;;;;;;;;;4995441;28;20047;-50
2022/10/06 07:01:25;;;;;;;3.72;2.00;;;;;;;;;;4990670;28;20050;-51
2022/10/06 07:03:57;;;;;;;4.55;2.30;;;;;;;;;;4995111;28;20062;-49
2022/10/06 07:06:28;;;;;;;4.45;2.08;;;;;;;;;;4994030;28;20073;-48
2022/10/06 07:08:57;;;;;;;3.78;1.75;;;;;;;;;;4991945;28;20050;-49
2022/10/06 07:11:28;;;;;;;4.00;2.05;;;;;;;;;;4995027;28;20061;-49
2022/10/06 07:14:05;;;;;;;7.05;2.33;;;;;;;;;;4984288;28;20132;-49
2022/10/06 07:25:12;;;;;;;6.20;2.00;;;;;;;;;;4979591;28;20058;-49
2022/10/06 07:27:41;;;;;;;6.55;2.17;;;;;;;;;;4949757;29;20051;-50
2022/10/06 07:30:16;;;;;;;6.38;2.00;;;;;;;;;;4951262;29;20059;-50
2022/10/06 07:32:52;;;;;;;6.05;2.03;;;;;;;;;;4944694;29;20095;-48
2022/10/06 07:35:23;;;;;;;4.40;1.90;;;;;;;;;;4948716;29;20841;-50
2022/10/06 07:37:52;;;;;;;2.83;1.55;;;;;;;;;;4941653;29;20043;-50
2022/10/06 07:40:22;;;;;;;9.68;2.10;;;;;;;;;;4943578;29;20122;-49
2022/10/06 07:42:50;;;;;;;2.75;1.73;;;;;;;;;;4945550;29;20091;-49
2022/10/06 07:48:14;;;;;;;2.47;1.63;;;;;;;;;;4949184;29;20130;-49
2022/10/06 07:50:42;;;;;;;3.40;1.60;;;;;;;;;;4948940;29;20051;-50
2022/10/06 07:53:09;;;;;;;7.30;1.70;;;;;;;;;;4951381;28;20051;-49
2022/10/06 07:55:39;;;;;;;6.53;1.83;;;;;;;;;;4953500;29;20059;-48
2022/10/06 07:58:09;;;;;;;9.23;1.88;;;;;;;;;;4951943;29;20138;-50
2022/10/06 08:00:37;;;;;;;10.48;2.10;;;;;;;;;;4953499;28;20681;-52
2022/10/06 08:03:06;;;;;;;4.43;1.23;;;;;;;;;;4948981;28;20405;-48
2022/10/06 08:05:37;;;;;;;7.20;1.10;;;;;;;;;;4945470;29;20058;-49
2022/10/06 08:08:07;;;;;;;10.40;1.52;;;;;;;;;;4954421;29;20055;-49
2022/10/06 08:10:34;;;;;;;3.35;1.25;;;;;;;;;;4948489;28;20059;-49
2022/10/06 08:13:04;;;;;;;10.40;1.42;;;;;;;;;;4948411;29;20060;-50
2022/10/06 08:15:31;;;;;;;7.93;1.30;;;;;;;;;;4953520;29;20069;-50
2022/10/06 08:18:06;;;;;;;4.32;0.70;;;;;;;;;;4942364;29;20047;-49
2022/10/06 08:20:35;;;;;;;5.32;0.98;;;;;;;;;;4952523;29;20070;-49
2022/10/06 08:23:10;;;;;;;7.15;1.00;;;;;;;;;;4946772;29;20062;-48
2022/10/06 08:25:42;;;;;;;10.82;0.90;;;;;;;;;;4965955;28;20145;-48
2022/10/06 08:28:12;;;;;;;18.10;1.92;;;;;;;;;;4982013;28;20101;-49
2022/10/06 08:30:40;;;;;;;12.73;0.85;;;;;;;;;;4984611;28;20371;-51
2022/10/06 08:33:06;;;;;;;3.20;0.47;;;;;;;;;;4985519;28;20061;-48
2022/10/06 08:35:38;;;;;;;6.50;0.85;;;;;;;;;;4983226;28;20798;-50
2022/10/06 08:38:08;;;;;;;5.43;1.45;;;;;;;;;;4984202;28;20038;-52
2022/10/06 08:40:37;;;;;;;3.67;0.82;;;;;;;;;;4979390;28;20065;-50
2022/10/06 08:43:12;;;;;;;1.65;0.70;;;;;;;;;;4990927;28;20056;-48
2022/10/06 08:45:43;;;;;;;7.15;0.90;;;;;;;;;;4988174;28;20070;-49
2022/10/06 08:48:21;;;;;;;2.00;0.52;;;;;;;;;;4989061;28;20042;-49
2022/10/06 08:51:00;;;;;;;9.70;1.05;;;;;;;;;;4985462;28;20659;-50
2022/10/06 08:53:34;;;;;;;5.32;0.90;;;;;;;;;;4993757;28;20057;-51
2022/10/06 08:56:08;;;;;;;12.85;1.20;;;;;;;;;;4991368;28;20045;-51
2022/10/06 08:58:49;;;;;;;4.07;0.88;;;;;;;;;;4991479;28;20053;-50
2022/10/06 09:01:20;;;;;;;4.78;0.88;;;;;;;;;;4983388;28;20053;-53
2022/10/06 09:03:51;;;;;;;10.18;0.85;;;;;;;;;;4984805;28;20144;-52
2022/10/06 09:06:38;;;;;;;4.10;0.70;;;;;;;;;;4986728;28;20050;-51
2022/10/06 09:09:13;;;;;;;4.97;0.70;;;;;;;;;;4992149;28;20050;-50
2022/10/06 09:11:54;;;;;;;1.88;0.52;;;;;;;;;;4991301;28;20050;-50
2022/10/06 09:14:32;;;;;;;4.15;0.82;;;;;;;;;;4986020;28;20129;-50
2022/10/06 09:17:14;;;;;;;5.05;0.85;;;;;;;;;;4981079;28;20046;-50
2022/10/06 09:19:50;;;;;;;1.92;0.60;;;;;;;;;;4982907;28;20051;-53
2022/10/06 09:22:24;;;;;;;4.85;0.75;;;;;;;;;;4989533;28;20089;-53
2022/10/06 09:24:56;;;;;;;5.22;0.80;;;;;;;;;;4991670;28;20061;-51
2022/10/06 09:27:28;;;;;;;5.85;1.23;;;;;;;;;;4989388;28;20494;-48
2022/10/06 09:29:58;;;;;;;8.32;1.15;;;;;;;;;;4963512;28;20078;-48
2022/10/06 09:32:28;;;;;;;8.40;0.98;;;;;;;;;;4980070;28;20061;-52
2022/10/06 09:34:58;;;;;;;3.97;0.85;;;;;;;;;;4991955;28;20050;-52
2022/10/06 09:37:55;;;;;;;54.15;4.07;;;;;;;;;;4987341;28;20050;-52
2022/10/06 09:40:36;;;;;;;16.55;1.77;;;;;;;;;;4983858;28;20121;-49
2022/10/06 09:43:05;;;;;;;4.25;0.73;;;;;;;;;;4990824;28;20050;-50
2022/10/06 09:45:33;;;;;;;12.13;1.42;;;;;;;;;;4990378;28;20061;-50
2022/10/06 09:48:14;;;;;;;17.02;1.52;;;;;;;;;;4990644;28;20057;-51
2022/10/06 09:50:42;;;;;;;4.80;0.77;;;;;;;;;;4990595;28;20046;-50
2022/10/06 09:53:17;;;;;;;11.07;1.25;;;;;;;;;;4992631;28;20062;-51
2022/10/06 09:55:53;;;;;;;5.90;1.20;;;;;;;;;;4984119;28;20063;-51
2022/10/06 09:58:26;;;;;;;8.68;0.93;;;;;;;;;;4983677;28;20043;-49
2022/10/06 10:00:54;;;;;;;5.38;0.65;;;;;;;;;;4979137;28;20137;-48
2022/10/06 10:03:24;;;;;;;10.07;1.30;;;;;;;;;;4970555;28;20101;-48
2022/10/06 10:06:01;;;;;;;8.55;1.02;;;;;;;;;;4982278;28;20367;-53
2022/10/06 10:08:31;;;;;;;12.75;1.00;;;;;;;;;;4974872;28;20184;-48
2022/10/06 10:13:57;;;;;;;15.13;1.43;;;;;;;;;;4981344;28;20046;-51
2022/10/06 10:16:33;;;;;;;33.75;3.10;;;;;;;;;;4990750;28;20057;-50
2022/10/06 10:19:04;;;;;;;7.25;1.25;;;;;;;;;;4985512;28;20061;-51
2022/10/06 10:21:40;;;;;;;6.25;0.88;;;;;;;;;;4982946;28;20051;-49
2022/10/06 10:24:23;;;;;;;8.10;0.90;;;;;;;;;;4974864;28;20046;-50
2022/10/06 10:26:55;;;;;;;8.65;1.02;;;;;;;;;;4985829;28;20050;-50
2022/10/06 10:29:43;;;;;;;8.73;1.08;;;;;;;;;;4989867;28;20057;-50
2022/10/06 10:32:22;;;;;;;4.32;0.80;;;;;;;;;;4985466;28;20077;-50
2022/10/06 10:35:03;;;;;;;6.15;0.70;;;;;;;;;;4985012;28;20050;-49
2022/10/06 10:37:34;;;;;;;3.13;0.68;;;;;;;;;;4984809;28;20061;-51
2022/10/06 10:40:20;;;;;;;5.68;0.90;;;;;;;;;;4985001;28;20054;-50
2022/10/06 10:42:51;;;;;;;10.95;1.13;;;;;;;;;;4994623;28;20066;-49
2022/10/06 10:45:24;;;;;;;8.20;1.17;;;;;;;;;;4990288;28;20130;-48
2022/10/06 10:48:00;;;;;;;6.13;0.90;;;;;;;;;;4994157;28;20057;-49
2022/10/06 10:50:30;;;;;;;8.90;1.10;;;;;;;;;;4997295;28;20104;-50
2022/10/06 10:53:01;;;;;;;3.65;0.82;;;;;;;;;;4997842;28;20477;-50
2022/10/06 10:55:34;;;;;;;5.57;0.75;;;;;;;;;;5001863;28;20384;-50
2022/10/06 10:58:10;;;;;;;7.07;0.75;;;;;;;;;;4996642;28;20046;-49
2022/10/06 11:00:41;;;;;;;10.40;1.10;;;;;;;;;;4991435;28;20046;-48
2022/10/06 11:03:09;;;;;;;6.25;0.80;;;;;;;;;;4989957;28;20058;-50
2022/10/06 11:05:59;;;;;;;20.95;1.48;;;;;;;;;;4988506;28;20477;-51
2022/10/06 11:08:36;;;;;;;4.30;1.08;;;;;;;;;;4988949;28;20039;-48
2022/10/06 11:11:21;;;;;;;6.90;0.88;;;;;;;;;;4986207;28;20476;-50
2022/10/06 11:13:51;;;;;;;6.32;1.08;;;;;;;;;;4983149;28;20140;-49
2022/10/06 11:16:29;;;;;;;7.82;1.33;;;;;;;;;;4994412;28;20046;-49
2022/10/06 11:19:03;;;;;;;5.13;0.95;;;;;;;;;;4986894;28;20491;-51
2022/10/06 11:21:35;;;;;;;9.02;1.23;;;;;;;;;;4990152;28;20087;-50
2022/10/06 11:24:13;;;;;;;9.07;1.17;;;;;;;;;;4994362;28;20077;-49
2022/10/06 11:26:52;;;;;;;12.25;1.23;;;;;;;;;;4984597;28;20046;-49
2022/10/06 11:29:29;;;;;;;14.95;1.60;;;;;;;;;;4988336;28;20773;-51
2022/10/06 11:32:00;;;;;;;18.67;1.75;;;;;;;;;;4995460;28;20054;-49
2022/10/06 11:34:30;;;;;;;11.30;1.38;;;;;;;;;;4992803;28;20404;-50
2022/10/06 11:37:02;;;;;;;5.55;1.00;;;;;;;;;;4995371;28;20050;-49
2022/10/06 11:39:36;;;;;;;16.23;1.10;;;;;;;;;;4994339;28;20061;-49
2022/10/06 11:42:24;;;;;;;9.07;1.00;;;;;;;;;;4983807;28;20116;-51
2022/10/06 11:44:59;;;;;;;5.70;1.00;;;;;;;;;;4994008;28;20651;-51
2022/10/06 11:47:36;;;;;;;9.40;0.98;;;;;;;;;;4984133;28;20058;-49
2022/10/06 11:50:33;;;;;;;3.97;1.10;;;;;;;;;;4991936;28;20050;-49
2022/10/06 11:53:04;;;;;;;8.18;1.30;;;;;;;;;;4983245;28;20054;-51
2022/10/06 11:55:35;;;;;;;5.82;0.90;;;;;;;;;;4978653;28;20053;-49
2022/10/06 11:58:16;;;;;;;11.20;1.42;;;;;;;;;;4978177;28;20097;-48
2022/10/06 12:00:51;;;;;;;16.65;1.80;;;;;;;;;;4979554;28;20129;-49
2022/10/06 12:03:51;;;;;;;14.10;2.33;;;;;;;;;;4989369;28;20057;-51
2022/10/06 12:06:44;;;;;;;36.78;2.45;;;;;;;;;;4913887;29;20135;-53
2022/10/06 12:09:29;;;;;;;8.20;1.02;;;;;;;;;;4949579;28;20150;-49
2022/10/06 12:11:57;;;;;;;2.80;0.95;;;;;;;;;;4993416;28;20050;-49
2022/10/06 12:14:40;;;;;;;11.90;1.25;;;;;;;;;;4995754;28;20384;-50
2022/10/06 12:17:16;;;;;;;7.68;1.30;;;;;;;;;;4985757;28;20050;-50
2022/10/06 12:19:50;;;;;;;10.05;1.00;;;;;;;;;;4985492;28;20138;-50
2022/10/06 12:22:24;;;;;;;9.35;0.90;;;;;;;;;;4980764;28;20061;-50
2022/10/06 12:24:54;;;;;;;5.95;1.27;;;;;;;;;;4979346;28;20042;-50
2022/10/06 12:27:28;;;;;;;7.43;1.20;;;;;;;;;;4982802;28;20046;-49
2022/10/06 12:30:03;;;;;;;11.48;1.15;;;;;;;;;;4995902;28;20086;-49
2022/10/06 12:32:43;;;;;;;5.25;0.98;;;;;;;;;;4990770;28;20133;-48
2022/10/06 12:35:27;;;;;;;3.00;1.17;;;;;;;;;;4994367;28;20050;-50
2022/10/06 12:37:59;;;;;;;8.50;1.20;;;;;;;;;;4994270;28;20046;-50
2022/10/06 12:40:53;;;;;;;5.75;0.93;;;;;;;;;;4994952;28;20166;-51
2022/10/06 12:43:41;;;;;;;16.25;1.38;;;;;;;;;;4988125;28;20047;-50
2022/10/06 12:46:25;;;;;;;29.25;2.10;;;;;;;;;;4989749;28;20054;-52
2022/10/06 12:49:10;;;;;;;6.05;1.05;;;;;;;;;;4993534;28;20054;-49
2022/10/06 12:51:42;;;;;;;8.93;1.17;;;;;;;;;;4993211;28;20060;-51
2022/10/06 12:54:19;;;;;;;6.38;1.02;;;;;;;;;;4994592;28;20149;-50
2022/10/06 12:56:57;;;;;;;13.82;1.27;;;;;;;;;;4988548;28;20146;-49
2022/10/06 12:59:33;;;;;;;7.82;1.17;;;;;;;;;;4988231;28;20424;-48
2022/10/06 13:02:07;;;;;;;5.53;0.77;;;;;;;;;;4982231;28;20050;-48
2022/10/06 13:04:44;;;;;;;11.30;1.35;;;;;;;;;;4984428;28;20468;-48
2022/10/06 13:07:18;;;;;;;10.43;1.15;;;;;;;;;;4990099;28;20535;-46
2022/10/06 13:09:47;;;;;;;7.10;0.97;;;;;;;;;;4982498;28;20082;-47
2022/10/06 13:12:26;;;;;;;5.28;1.10;;;;;;;;;;4989086;28;20042;-48
2022/10/06 13:15:10;;;;;;;5.65;0.95;;;;;;;;;;4984296;28;20054;-49
2022/10/06 13:17:45;;;;;;;7.57;0.98;;;;;;;;;;4993634;28;20050;-48
2022/10/06 13:20:25;;;;;;;10.80;2.70;;;;;;;;;;4992892;28;20462;-50
2022/10/06 13:23:11;;;;;;;7.93;1.20;;;;;;;;;;4984093;28;20104;-48
2022/10/06 13:25:48;;;;;;;5.32;0.88;;;;;;;;;;4991560;28;20073;-49
2022/10/06 13:28:25;;;;;;;11.40;1.15;;;;;;;;;;4993427;28;20472;-49
2022/10/06 13:30:54;;;;;;;5.03;1.08;;;;;;;;;;4987698;28;20054;-49
2022/10/06 13:33:31;;;;;;;6.57;0.95;;;;;;;;;;4988451;28;20141;-49
2022/10/06 13:36:05;;;;;;;3.95;0.60;;;;;;;;;;4981362;28;20340;-49
2022/10/06 13:38:34;;;;;;;9.88;1.33;;;;;;;;;;4994276;28;20058;-49
2022/10/06 13:41:21;;;;;;;9.80;0.95;;;;;;;;;;4990745;28;20398;-53
2022/10/06 13:43:54;;;;;;;5.35;0.75;;;;;;;;;;4994609;28;20111;-49
2022/10/06 13:46:24;;;;;;;14.10;1.35;;;;;;;;;;4987407;28;20065;-49
2022/10/06 13:48:53;;;;;;;18.77;1.48;;;;;;;;;;4984467;28;20078;-49
2022/10/06 13:51:24;;;;;;;9.02;1.13;;;;;;;;;;4993724;28;20050;-49
2022/10/06 13:53:55;;;;;;;6.13;1.25;;;;;;;;;;4992961;28;20060;-48
2022/10/06 13:56:28;;;;;;;5.30;0.85;;;;;;;;;;4993952;28;20110;-48
2022/10/06 13:59:04;;;;;;;9.48;1.20;;;;;;;;;;4984547;28;20051;-48
2022/10/06 14:01:32;;;;;;;5.43;1.30;;;;;;;;;;4995170;28;20491;-49
2022/10/06 14:04:17;;;;;;;11.88;1.33;;;;;;;;;;4986727;28;20054;-48
2022/10/06 14:06:48;;;;;;;9.05;1.48;;;;;;;;;;4997228;28;20105;-48
2022/10/06 14:09:19;;;;;;;8.93;1.58;;;;;;;;;;4995641;28;20088;-48
2022/10/06 14:11:49;;;;;;;8.50;1.17;;;;;;;;;;4994804;28;20074;-51
2022/10/06 14:14:31;;;;;;;11.90;1.20;;;;;;;;;;4993906;28;20058;-49
2022/10/06 14:17:01;;;;;;;4.85;0.95;;;;;;;;;;4992014;28;20054;-48
2022/10/06 14:19:31;;;;;;;5.85;1.00;;;;;;;;;;4995631;28;20105;-47
2022/10/06 14:22:01;;;;;;;7.47;0.93;;;;;;;;;;4995485;28;20527;-49
2022/10/06 14:24:33;;;;;;;7.78;1.10;;;;;;;;;;4996146;28;20061;-51
2022/10/06 14:27:04;;;;;;;6.22;1.17;;;;;;;;;;4995889;28;20150;-50
2022/10/06 14:29:32;;;;;;;5.32;0.68;;;;;;;;;;4995645;28;20191;-51
2022/10/06 14:32:07;;;;;;;4.47;0.80;;;;;;;;;;4992030;28;20232;-50
2022/10/06 14:34:37;;;;;;;4.80;0.90;;;;;;;;;;4981798;28;20064;-50
2022/10/06 14:37:10;;;;;;;12.50;1.60;;;;;;;;;;4980964;28;20258;-49
2022/10/06 14:39:41;;;;;;;9.13;1.60;;;;;;;;;;4979655;28;20055;-48
2022/10/06 14:42:07;;;;;;;4.45;0.90;;;;;;;;;;4992385;28;20046;-50
2022/10/06 14:44:42;;;;;;;3.30;0.90;;;;;;;;;;4985940;28;20057;-49
2022/10/06 14:47:10;;;;;;;9.93;1.98;;;;;;;;;;4988221;28;20142;-48
2022/10/06 14:52:18;;;;;;;7.78;1.40;;;;;;;;;;4984535;28;20066;-50
2022/10/06 14:54:46;;;;;;;4.68;0.70;;;;;;;;;;4996003;28;20073;-51
2022/10/06 14:57:13;;;;;;;4.32;0.90;;;;;;;;;;4995191;28;20057;-50
2022/10/06 14:59:55;;;;;;;7.30;1.05;;;;;;;;;;4995840;28;20449;-51
2022/10/06 15:02:24;;;;;;;4.50;0.95;;;;;;;;;;4986159;28;20047;-50
2022/10/06 15:04:53;;;;;;;8.18;1.58;;;;;;;;;;4985984;28;20081;-51
2022/10/06 15:10:05;;;;;;;5.45;1.58;;;;;;;;;;4985053;28;20152;-51
2022/10/06 15:12:33;;;;;;;3.78;0.80;;;;;;;;;;4989509;28;20165;-52
2022/10/06 15:15:16;;;;;;;5.35;1.17;;;;;;;;;;4995814;28;20061;-54
2022/10/06 15:17:44;;;;;;;7.35;1.17;;;;;;;;;;4990913;28;20456;-51
2022/10/06 15:20:13;;;;;;;3.22;0.90;;;;;;;;;;4980239;28;20062;-52
2022/10/06 15:22:42;;;;;;;6.22;1.35;;;;;;;;;;4989393;28;20050;-51
2022/10/06 15:28:59;;;;;;;8.55;1.45;;;;;;;;;;4987497;28;20620;-54
2022/10/06 15:31:05;;;;;;;3.50;0.82;;;;;;;;;;4973108;28;20506;-52
2022/10/06 15:33:35;;;;;;;6.88;0.95;;;;;;;;;;4959714;28;20106;-52
2022/10/06 15:36:17;;;;;;;6.88;1.50;;;;;;;;;;4964073;28;20047;-50
2022/10/06 15:38:45;;;;;;;7.00;1.33;;;;;;;;;;4975839;28;20468;-52
2022/10/06 15:41:13;;;;;;;7.07;1.15;;;;;;;;;;4970179;28;20051;-51